Time;durP1;ratioP1;P1;durP2;ratioP2;P2;SDS_P1;SDS_P2;PMS_P1;PMS_P2;Temp;Humidity;BMP_temperature;BMP_pressure;BME280_temperature;BME280_humidity;BME280_pressure;Samples;Min_cycle;Max_cycle;Signal;HPM_P1;HPM_P2
2022/08/16 00:01:45;;;;;;;3.15;2.25;;;;;;;;;;4455315;28;21225;-65
2022/08/16 00:03:55;;;;;;;2.45;2.25;;;;;;;;;;4470149;28;20113;-66
2022/08/16 00:06:06;;;;;;;2.83;2.50;;;;;;;;;;4454638;28;20047;-65
2022/08/16 00:08:18;;;;;;;2.85;2.30;;;;;;;;;;4454767;28;20039;-66
2022/08/16 00:10:32;;;;;;;3.15;2.40;;;;;;;;;;4447454;28;20035;-65
2022/08/16 00:12:43;;;;;;;2.95;2.25;;;;;;;;;;4455643;28;20058;-65
2022/08/16 00:14:54;;;;;;;2.40;2.20;;;;;;;;;;4469437;28;20046;-66
2022/08/16 00:17:04;;;;;;;2.63;2.35;;;;;;;;;;4469432;28;20046;-65
2022/08/16 00:19:22;;;;;;;3.55;2.35;;;;;;;;;;4454661;28;20042;-65
2022/08/16 00:21:33;;;;;;;2.72;2.22;;;;;;;;;;4442351;28;20606;-66
2022/08/16 00:23:43;;;;;;;2.35;2.00;;;;;;;;;;4438662;28;20039;-65
2022/08/16 00:25:54;;;;;;;2.72;2.28;;;;;;;;;;4454271;28;20102;-65
2022/08/16 00:28:05;;;;;;;2.30;2.10;;;;;;;;;;4455420;28;20122;-65
2022/08/16 00:30:17;;;;;;;3.55;2.30;;;;;;;;;;4437943;28;20036;-65
2022/08/16 00:32:28;;;;;;;2.80;2.53;;;;;;;;;;4454339;28;20043;-65
2022/08/16 00:34:40;;;;;;;3.00;2.30;;;;;;;;;;4455064;28;20134;-65
2022/08/16 00:36:51;;;;;;;2.50;2.30;;;;;;;;;;4468996;28;20097;-65
2022/08/16 00:39:01;;;;;;;2.70;2.50;;;;;;;;;;4470703;28;20094;-65
2022/08/16 00:41:12;;;;;;;2.50;2.30;;;;;;;;;;4440041;28;20599;-65
2022/08/16 00:43:27;;;;;;;2.63;2.30;;;;;;;;;;4441256;28;20122;-65
2022/08/16 00:46:00;;;;;;;2.45;2.20;;;;;;;;;;4453803;28;20043;-65
2022/08/16 00:48:12;;;;;;;2.85;2.35;;;;;;;;;;4442946;28;20111;-65
2022/08/16 00:50:27;;;;;;;2.60;2.40;;;;;;;;;;4455863;28;20035;-65
2022/08/16 00:52:39;;;;;;;2.67;2.40;;;;;;;;;;4454835;28;20043;-65
2022/08/16 00:54:50;;;;;;;2.88;2.40;;;;;;;;;;4454562;28;20063;-65
2022/08/16 00:57:01;;;;;;;2.38;2.17;;;;;;;;;;4468633;28;20130;-65
2022/08/16 00:59:13;;;;;;;2.90;2.45;;;;;;;;;;4453673;28;21433;-65
2022/08/16 01:01:24;;;;;;;2.65;2.40;;;;;;;;;;4452735;28;20035;-65
2022/08/16 01:03:37;;;;;;;2.50;2.17;;;;;;;;;;4469752;28;20026;-65
2022/08/16 01:05:48;;;;;;;2.33;2.10;;;;;;;;;;4469513;28;20047;-65
2022/08/16 01:07:59;;;;;;;2.80;2.42;;;;;;;;;;4447109;28;20658;-65
2022/08/16 01:10:10;;;;;;;2.42;2.22;;;;;;;;;;4425351;28;20040;-64
2022/08/16 01:12:20;;;;;;;3.38;2.10;;;;;;;;;;4440387;28;20115;-65
2022/08/16 01:14:35;;;;;;;2.97;2.30;;;;;;;;;;4456981;28;20032;-65
2022/08/16 01:16:46;;;;;;;2.40;2.20;;;;;;;;;;4443500;28;20076;-65
2022/08/16 01:19:12;;;;;;;2.50;2.30;;;;;;;;;;4461848;28;20035;-65
2022/08/16 01:21:30;;;;;;;2.38;2.10;;;;;;;;;;4461588;28;20062;-65
2022/08/16 01:24:04;;;;;;;2.30;2.10;;;;;;;;;;4440838;28;20933;-65
2022/08/16 01:26:15;;;;;;;2.10;1.90;;;;;;;;;;4472852;28;20053;-65
2022/08/16 01:28:26;;;;;;;2.85;2.45;;;;;;;;;;4452461;28;20027;-66
2022/08/16 01:30:40;;;;;;;2.45;2.08;;;;;;;;;;4450175;28;20040;-65
2022/08/16 01:32:52;;;;;;;2.60;2.30;;;;;;;;;;4440545;28;20032;-65
2022/08/16 01:35:10;;;;;;;2.22;2.03;;;;;;;;;;4456739;28;20023;-65
2022/08/16 01:37:21;;;;;;;2.40;2.20;;;;;;;;;;4456010;28;20050;-65
2022/08/16 01:39:32;;;;;;;2.65;2.30;;;;;;;;;;4446363;28;21131;-65
2022/08/16 01:41:44;;;;;;;2.97;2.55;;;;;;;;;;4443414;28;20106;-65
2022/08/16 01:43:55;;;;;;;3.15;2.50;;;;;;;;;;4448425;28;20042;-65
2022/08/16 01:46:20;;;;;;;2.67;2.25;;;;;;;;;;4455340;28;20066;-65
2022/08/16 01:48:31;;;;;;;2.50;2.20;;;;;;;;;;4472889;28;20134;-64
2022/08/16 01:50:43;;;;;;;2.72;2.10;;;;;;;;;;4448302;28;20039;-65
2022/08/16 01:52:54;;;;;;;2.60;2.40;;;;;;;;;;4427737;28;20028;-65
2022/08/16 01:55:25;;;;;;;2.42;2.22;;;;;;;;;;4441380;28;20043;-65
2022/08/16 01:57:38;;;;;;;2.55;2.33;;;;;;;;;;4444873;28;20126;-65
2022/08/16 01:59:49;;;;;;;3.17;2.50;;;;;;;;;;4471356;28;20043;-65
2022/08/16 02:02:03;;;;;;;2.67;2.20;;;;;;;;;;4448675;28;20038;-65
2022/08/16 02:04:16;;;;;;;2.30;2.10;;;;;;;;;;4428652;28;20779;-66
2022/08/16 02:06:26;;;;;;;2.72;2.53;;;;;;;;;;4428774;28;20201;-66
2022/08/16 02:08:37;;;;;;;2.22;2.00;;;;;;;;;;4456195;28;20546;-65
2022/08/16 02:10:47;;;;;;;2.80;2.50;;;;;;;;;;4470588;28;20083;-65
2022/08/16 02:12:58;;;;;;;2.45;2.25;;;;;;;;;;4457233;28;20500;-66
2022/08/16 02:15:09;;;;;;;2.83;2.42;;;;;;;;;;4448706;28;20036;-66
2022/08/16 02:17:20;;;;;;;3.15;2.53;;;;;;;;;;4442131;28;20138;-66
2022/08/16 02:19:32;;;;;;;3.47;2.40;;;;;;;;;;4453528;28;20031;-65
2022/08/16 02:21:49;;;;;;;2.33;2.13;;;;;;;;;;4456400;28;20803;-65
2022/08/16 02:23:59;;;;;;;2.60;2.17;;;;;;;;;;4470644;28;20043;-65
2022/08/16 02:26:10;;;;;;;2.80;2.30;;;;;;;;;;4438872;28;20055;-65
2022/08/16 02:28:23;;;;;;;2.80;2.33;;;;;;;;;;4455709;28;20039;-65
2022/08/16 02:30:33;;;;;;;2.67;1.92;;;;;;;;;;4470954;28;20665;-65
2022/08/16 02:32:44;;;;;;;2.65;2.40;;;;;;;;;;4438338;28;20092;-65
2022/08/16 02:34:54;;;;;;;2.65;2.38;;;;;;;;;;4441693;28;20046;-65
2022/08/16 02:37:05;;;;;;;4.32;2.60;;;;;;;;;;4470669;28;20031;-65
2022/08/16 02:39:18;;;;;;;2.47;2.25;;;;;;;;;;4432660;28;20151;-65
2022/08/16 02:41:28;;;;;;;2.60;2.30;;;;;;;;;;4427719;28;20591;-65
2022/08/16 02:43:39;;;;;;;3.00;2.47;;;;;;;;;;4470395;28;20104;-65
2022/08/16 02:45:50;;;;;;;2.50;2.30;;;;;;;;;;4472618;28;20045;-65
2022/08/16 02:48:01;;;;;;;2.80;2.38;;;;;;;;;;4471723;28;20134;-64
2022/08/16 02:50:11;;;;;;;2.35;2.15;;;;;;;;;;4470805;28;20518;-65
2022/08/16 02:52:22;;;;;;;2.83;2.30;;;;;;;;;;4449521;28;20107;-65
2022/08/16 02:54:34;;;;;;;2.25;2.05;;;;;;;;;;4455738;28;20979;-65
2022/08/16 02:56:45;;;;;;;2.30;2.10;;;;;;;;;;4445611;28;20039;-65
2022/08/16 02:58:56;;;;;;;2.85;2.10;;;;;;;;;;4457320;28;20042;-65
2022/08/16 03:01:08;;;;;;;2.72;2.30;;;;;;;;;;4471447;28;20034;-65
2022/08/16 03:03:20;;;;;;;3.03;2.20;;;;;;;;;;4471645;28;20041;-65
2022/08/16 03:05:31;;;;;;;3.13;2.47;;;;;;;;;;4471375;28;20989;-65
2022/08/16 03:07:43;;;;;;;2.63;2.13;;;;;;;;;;4456637;28;20042;-65
2022/08/16 03:09:54;;;;;;;2.58;2.38;;;;;;;;;;4443854;28;20122;-65
2022/08/16 03:12:07;;;;;;;2.55;2.35;;;;;;;;;;4439475;28;20036;-65
2022/08/16 03:14:18;;;;;;;2.97;2.50;;;;;;;;;;4456139;28;20031;-66
2022/08/16 03:16:29;;;;;;;3.08;2.47;;;;;;;;;;4448108;28;20038;-64
2022/08/16 03:18:41;;;;;;;3.40;2.70;;;;;;;;;;4444904;28;20027;-65
2022/08/16 03:20:55;;;;;;;2.88;2.47;;;;;;;;;;4466576;28;20585;-65
2022/08/16 03:23:06;;;;;;;3.72;2.42;;;;;;;;;;4469612;28;20034;-65
2022/08/16 03:25:17;;;;;;;4.13;2.75;;;;;;;;;;4464397;28;20038;-65
2022/08/16 03:27:43;;;;;;;2.97;2.60;;;;;;;;;;4454207;28;20051;-65
2022/08/16 03:30:24;;;;;;;2.63;2.30;;;;;;;;;;4448995;28;20082;-65
2022/08/16 03:32:48;;;;;;;3.22;2.70;;;;;;;;;;4448102;28;20039;-65
2022/08/16 03:34:59;;;;;;;2.85;2.40;;;;;;;;;;4438747;28;20672;-65
2022/08/16 03:37:09;;;;;;;2.47;2.28;;;;;;;;;;4448571;28;20548;-65
2022/08/16 03:39:22;;;;;;;2.83;2.58;;;;;;;;;;4456413;28;20042;-65
2022/08/16 03:41:32;;;;;;;2.45;2.10;;;;;;;;;;4440301;28;20043;-65
2022/08/16 03:43:44;;;;;;;2.58;2.15;;;;;;;;;;4470763;28;20035;-65
2022/08/16 03:45:58;;;;;;;2.42;2.22;;;;;;;;;;4444090;28;20228;-65
2022/08/16 03:48:13;;;;;;;2.80;2.28;;;;;;;;;;4427443;28;20027;-64
2022/08/16 03:50:25;;;;;;;2.80;2.20;;;;;;;;;;4439636;28;20590;-65
2022/08/16 03:52:35;;;;;;;2.83;2.30;;;;;;;;;;4442389;28;20139;-65
2022/08/16 03:54:50;;;;;;;2.92;2.42;;;;;;;;;;4429299;28;20052;-65
2022/08/16 03:57:00;;;;;;;2.47;2.20;;;;;;;;;;4448338;28;20146;-65
2022/08/16 03:59:13;;;;;;;2.35;2.13;;;;;;;;;;4470654;28;20043;-65
2022/08/16 04:01:30;;;;;;;3.08;2.38;;;;;;;;;;4470433;28;20043;-65
2022/08/16 04:03:41;;;;;;;2.60;2.40;;;;;;;;;;4467090;28;20055;-65
2022/08/16 04:05:53;;;;;;;2.60;2.28;;;;;;;;;;4447960;28;20535;-66
2022/08/16 04:08:04;;;;;;;2.38;2.15;;;;;;;;;;4463476;28;20035;-65
2022/08/16 04:10:16;;;;;;;2.38;2.17;;;;;;;;;;4454536;28;20031;-65
2022/08/16 04:12:26;;;;;;;2.60;2.40;;;;;;;;;;4470536;28;20043;-65
2022/08/16 04:14:37;;;;;;;2.42;2.22;;;;;;;;;;4470307;28;20928;-65
2022/08/16 04:16:48;;;;;;;2.88;2.30;;;;;;;;;;4455460;28;20347;-65
2022/08/16 04:19:15;;;;;;;3.87;2.63;;;;;;;;;;4470094;28;20034;-65
2022/08/16 04:21:25;;;;;;;3.15;2.55;;;;;;;;;;4443346;28;20780;-65
2022/08/16 04:23:37;;;;;;;2.40;2.20;;;;;;;;;;4446912;28;20504;-65
2022/08/16 04:25:48;;;;;;;3.15;2.33;;;;;;;;;;4454553;28;20081;-65
2022/08/16 04:27:59;;;;;;;3.40;2.70;;;;;;;;;;4456998;28;20026;-65
2022/08/16 04:30:12;;;;;;;3.00;2.25;;;;;;;;;;4452334;28;20063;-65
2022/08/16 04:32:29;;;;;;;2.58;2.38;;;;;;;;;;4454678;28;20656;-65
2022/08/16 04:34:40;;;;;;;3.08;2.67;;;;;;;;;;4467796;28;20069;-66
2022/08/16 04:36:52;;;;;;;4.30;2.40;;;;;;;;;;4443122;28;20854;-67
2022/08/16 04:39:03;;;;;;;3.70;2.65;;;;;;;;;;4425095;28;20047;-66
2022/08/16 04:41:14;;;;;;;3.08;2.33;;;;;;;;;;4447323;28;20790;-67
2022/08/16 04:43:24;;;;;;;3.15;2.50;;;;;;;;;;4453838;28;20038;-66
2022/08/16 04:45:35;;;;;;;3.33;2.80;;;;;;;;;;4453711;28;20118;-66
2022/08/16 04:47:48;;;;;;;3.03;2.47;;;;;;;;;;4471199;28;20050;-65
2022/08/16 04:50:07;;;;;;;4.38;2.75;;;;;;;;;;4449639;28;20392;-65
2022/08/16 04:52:19;;;;;;;2.75;2.38;;;;;;;;;;4444731;28;20224;-65
2022/08/16 04:54:29;;;;;;;3.42;2.40;;;;;;;;;;4472029;28;20066;-65
2022/08/16 04:56:40;;;;;;;2.95;2.30;;;;;;;;;;4444582;28;20597;-65
2022/08/16 04:58:50;;;;;;;2.75;2.25;;;;;;;;;;4439441;28;20102;-65
2022/08/16 05:01:03;;;;;;;2.80;2.28;;;;;;;;;;4471478;28;20042;-65
2022/08/16 05:03:16;;;;;;;3.38;2.78;;;;;;;;;;4473439;28;20039;-65
2022/08/16 05:05:32;;;;;;;4.40;2.80;;;;;;;;;;4440465;28;21337;-65
2022/08/16 05:07:43;;;;;;;3.42;2.78;;;;;;;;;;4471190;28;20877;-64
2022/08/16 05:09:54;;;;;;;2.63;2.35;;;;;;;;;;4466630;28;20023;-65
2022/08/16 05:12:05;;;;;;;3.08;2.53;;;;;;;;;;4440793;28;20595;-65
2022/08/16 05:14:16;;;;;;;2.97;2.50;;;;;;;;;;4473671;28;20058;-65
2022/08/16 05:16:29;;;;;;;3.58;2.50;;;;;;;;;;4457722;28;20142;-65
2022/08/16 05:18:50;;;;;;;3.20;2.50;;;;;;;;;;4430583;28;20067;-65
2022/08/16 05:21:01;;;;;;;3.95;2.53;;;;;;;;;;4444807;28;20072;-65
2022/08/16 05:23:12;;;;;;;3.40;2.60;;;;;;;;;;4470930;28;20031;-65
2022/08/16 05:25:23;;;;;;;2.75;2.38;;;;;;;;;;4471757;28;20108;-65
2022/08/16 05:27:37;;;;;;;3.35;2.58;;;;;;;;;;4449808;28;20158;-64
2022/08/16 05:29:47;;;;;;;3.30;2.45;;;;;;;;;;4457645;28;20665;-65
2022/08/16 05:32:03;;;;;;;2.92;2.45;;;;;;;;;;4450375;28;20044;-64
2022/08/16 05:34:14;;;;;;;2.92;2.40;;;;;;;;;;4450286;28;20527;-65
2022/08/16 05:36:24;;;;;;;2.75;2.40;;;;;;;;;;4448316;28;20036;-65
2022/08/16 05:38:36;;;;;;;2.92;2.30;;;;;;;;;;4473003;28;20035;-65
2022/08/16 05:40:49;;;;;;;4.32;2.80;;;;;;;;;;4449537;28;20035;-64
2022/08/16 05:42:59;;;;;;;2.40;2.20;;;;;;;;;;4448994;28;20039;-65
2022/08/16 05:45:10;;;;;;;2.20;2.00;;;;;;;;;;4470481;28;20138;-65
2022/08/16 05:47:21;;;;;;;2.50;2.22;;;;;;;;;;4443130;28;20086;-64
2022/08/16 05:49:32;;;;;;;3.55;2.40;;;;;;;;;;4455986;28;20186;-65
2022/08/16 05:51:43;;;;;;;2.92;2.50;;;;;;;;;;4440678;28;20066;-65
2022/08/16 05:53:56;;;;;;;2.67;2.20;;;;;;;;;;4454720;28;20087;-65
2022/08/16 05:56:06;;;;;;;2.50;2.22;;;;;;;;;;4455974;28;20054;-65
2022/08/16 05:58:20;;;;;;;2.40;2.20;;;;;;;;;;4447234;28;20058;-65
2022/08/16 06:00:31;;;;;;;2.03;1.75;;;;;;;;;;4449279;28;20142;-65
2022/08/16 06:02:42;;;;;;;2.25;2.05;;;;;;;;;;4449483;28;20042;-65
2022/08/16 06:05:12;;;;;;;2.45;1.98;;;;;;;;;;4457363;28;20850;-65
2022/08/16 06:07:23;;;;;;;2.30;2.10;;;;;;;;;;4456167;28;20047;-65
2022/08/16 06:09:38;;;;;;;2.20;1.98;;;;;;;;;;4455813;28;20165;-65
2022/08/16 06:11:48;;;;;;;2.90;1.95;;;;;;;;;;4449844;28;20055;-66
2022/08/16 06:13:59;;;;;;;2.42;1.90;;;;;;;;;;4440048;28;20042;-65
2022/08/16 06:16:20;;;;;;;2.38;2.00;;;;;;;;;;4442873;28;20036;-65
2022/08/16 06:18:35;;;;;;;2.22;2.00;;;;;;;;;;4440049;28;20042;-65
2022/08/16 06:20:46;;;;;;;3.30;2.30;;;;;;;;;;4448718;28;20046;-65
2022/08/16 06:23:02;;;;;;;2.47;2.23;;;;;;;;;;4440386;28;20565;-65
2022/08/16 06:25:17;;;;;;;2.93;2.27;;;;;;;;;;4455630;28;20043;-64
2022/08/16 06:27:28;;;;;;;2.05;1.85;;;;;;;;;;4443576;28;20275;-65
2022/08/16 06:29:39;;;;;;;2.17;1.90;;;;;;;;;;4456162;28;20031;-65
2022/08/16 06:31:49;;;;;;;2.30;1.92;;;;;;;;;;4465246;28;20045;-65
2022/08/16 06:34:01;;;;;;;2.20;1.77;;;;;;;;;;4441382;28;20041;-65
2022/08/16 06:36:16;;;;;;;2.53;2.00;;;;;;;;;;4456806;28;20039;-65
2022/08/16 06:38:36;;;;;;;2.70;2.10;;;;;;;;;;4449200;28;20063;-64
2022/08/16 06:40:55;;;;;;;2.45;2.03;;;;;;;;;;4448860;28;20083;-65
2022/08/16 06:43:06;;;;;;;2.65;2.28;;;;;;;;;;4464404;28;20039;-64
2022/08/16 06:45:24;;;;;;;2.70;2.10;;;;;;;;;;4462630;28;20085;-65
2022/08/16 06:47:44;;;;;;;2.13;1.90;;;;;;;;;;4470363;28;20042;-65
2022/08/16 06:49:54;;;;;;;2.00;1.80;;;;;;;;;;4422585;28;20047;-65
2022/08/16 06:52:10;;;;;;;2.30;2.10;;;;;;;;;;4449450;28;20035;-64
2022/08/16 06:54:21;;;;;;;2.20;2.00;;;;;;;;;;4427418;28;20039;-64
2022/08/16 06:56:33;;;;;;;2.88;2.10;;;;;;;;;;4428902;28;20372;-64
2022/08/16 06:58:52;;;;;;;2.67;2.08;;;;;;;;;;4456388;28;20042;-65
2022/08/16 07:01:05;;;;;;;2.63;2.08;;;;;;;;;;4454352;28;20035;-65
2022/08/16 07:03:18;;;;;;;2.30;2.00;;;;;;;;;;4472130;28;20098;-65
2022/08/16 07:05:30;;;;;;;3.15;2.30;;;;;;;;;;4470652;28;20561;-65
2022/08/16 07:08:10;;;;;;;2.90;2.30;;;;;;;;;;4454288;28;20058;-65
2022/08/16 07:10:21;;;;;;;2.45;2.10;;;;;;;;;;4425694;28;20044;-64
2022/08/16 07:12:32;;;;;;;2.95;2.20;;;;;;;;;;4469178;28;20030;-64
2022/08/16 07:14:43;;;;;;;2.80;2.50;;;;;;;;;;4456090;28;20602;-65
2022/08/16 07:16:57;;;;;;;2.53;2.20;;;;;;;;;;4470236;28;20679;-64
2022/08/16 07:19:08;;;;;;;2.58;2.10;;;;;;;;;;4456523;28;20086;-65
2022/08/16 07:21:21;;;;;;;2.75;2.30;;;;;;;;;;4471073;28;20207;-65
2022/08/16 07:23:33;;;;;;;2.50;2.20;;;;;;;;;;4442525;28;21196;-65
2022/08/16 07:25:43;;;;;;;3.63;2.47;;;;;;;;;;4438123;28;20035;-65
2022/08/16 07:27:55;;;;;;;2.67;2.30;;;;;;;;;;4448018;28;20063;-64
2022/08/16 07:30:11;;;;;;;3.13;2.40;;;;;;;;;;4472573;28;20109;-64
2022/08/16 07:32:22;;;;;;;2.92;2.38;;;;;;;;;;4471072;28;20542;-65
2022/08/16 07:34:33;;;;;;;2.80;2.50;;;;;;;;;;4447857;28;20031;-64
2022/08/16 07:36:44;;;;;;;2.60;2.33;;;;;;;;;;4471715;28;20033;-65
2022/08/16 07:38:55;;;;;;;3.05;2.30;;;;;;;;;;4471297;28;20043;-65
2022/08/16 07:41:06;;;;;;;2.55;2.00;;;;;;;;;;4470621;28;20034;-65
2022/08/16 07:43:17;;;;;;;2.70;2.30;;;;;;;;;;4438166;28;20031;-65
2022/08/16 07:45:28;;;;;;;2.85;2.55;;;;;;;;;;4447842;28;20492;-65
2022/08/16 07:47:41;;;;;;;2.88;2.40;;;;;;;;;;4469846;28;20047;-65
2022/08/16 07:49:51;;;;;;;3.83;2.63;;;;;;;;;;4455048;28;20921;-65
2022/08/16 07:52:02;;;;;;;2.88;2.50;;;;;;;;;;4470304;28;20133;-65
2022/08/16 07:54:15;;;;;;;3.53;2.47;;;;;;;;;;4469455;28;20582;-65
2022/08/16 07:56:28;;;;;;;2.50;2.30;;;;;;;;;;4469448;28;20089;-65
2022/08/16 07:58:41;;;;;;;3.17;2.60;;;;;;;;;;4453942;28;20031;-65
2022/08/16 08:00:55;;;;;;;4.20;2.80;;;;;;;;;;4442749;28;20041;-64
2022/08/16 08:03:06;;;;;;;2.55;2.22;;;;;;;;;;4433638;28;20030;-64
2022/08/16 08:05:16;;;;;;;2.60;2.40;;;;;;;;;;4456829;28;20497;-65
2022/08/16 08:07:28;;;;;;;4.15;2.40;;;;;;;;;;4453768;28;20075;-65
2022/08/16 08:09:39;;;;;;;2.80;2.40;;;;;;;;;;4470974;28;20069;-65
2022/08/16 08:11:50;;;;;;;3.30;2.60;;;;;;;;;;4438230;28;20346;-65
2022/08/16 08:14:01;;;;;;;2.80;2.28;;;;;;;;;;4437119;28;20118;-65
2022/08/16 08:16:11;;;;;;;3.30;2.50;;;;;;;;;;4469275;28;20145;-65
2022/08/16 08:18:22;;;;;;;2.78;2.40;;;;;;;;;;4463271;28;20130;-65
2022/08/16 08:20:33;;;;;;;3.83;2.40;;;;;;;;;;4447115;28;20765;-65
2022/08/16 08:22:46;;;;;;;2.50;2.22;;;;;;;;;;4469414;28;20139;-65
2022/08/16 08:24:56;;;;;;;3.80;3.10;;;;;;;;;;4453860;28;20034;-65
2022/08/16 08:27:07;;;;;;;3.53;2.95;;;;;;;;;;4455755;28;20042;-65
2022/08/16 08:29:18;;;;;;;3.00;2.50;;;;;;;;;;4442473;28;20597;-67
2022/08/16 08:31:29;;;;;;;2.78;2.40;;;;;;;;;;4470180;28;20059;-66
2022/08/16 08:33:39;;;;;;;2.78;2.35;;;;;;;;;;4454543;28;20031;-65
2022/08/16 08:35:50;;;;;;;2.85;2.58;;;;;;;;;;4454737;28;20023;-66
2022/08/16 08:38:01;;;;;;;4.25;2.40;;;;;;;;;;4458345;28;20050;-65
2022/08/16 08:40:14;;;;;;;3.45;2.53;;;;;;;;;;4447085;28;20595;-66
2022/08/16 08:42:27;;;;;;;3.20;2.78;;;;;;;;;;4455657;28;20069;-66
2022/08/16 08:44:37;;;;;;;3.58;2.60;;;;;;;;;;4441814;28;20035;-66
2022/08/16 08:46:56;;;;;;;2.80;2.50;;;;;;;;;;4469748;28;20049;-66
2022/08/16 08:49:07;;;;;;;3.13;2.53;;;;;;;;;;4447767;28;20043;-66
2022/08/16 08:51:24;;;;;;;3.25;2.28;;;;;;;;;;4441484;28;20035;-67
2022/08/16 08:53:38;;;;;;;2.83;2.50;;;;;;;;;;4469985;28;20031;-66
2022/08/16 08:55:50;;;;;;;3.08;2.60;;;;;;;;;;4447216;28;20043;-66
2022/08/16 08:58:01;;;;;;;2.67;2.30;;;;;;;;;;4447848;28;20931;-66
2022/08/16 09:00:22;;;;;;;4.10;2.92;;;;;;;;;;4456322;28;20070;-66
2022/08/16 09:02:33;;;;;;;2.90;2.40;;;;;;;;;;4443583;28;20031;-66
2022/08/16 09:04:45;;;;;;;3.67;2.72;;;;;;;;;;4447365;28;20091;-66
2022/08/16 09:06:57;;;;;;;2.90;2.60;;;;;;;;;;4432630;28;20039;-66
2022/08/16 09:09:08;;;;;;;3.03;2.50;;;;;;;;;;4440015;28;20710;-65
2022/08/16 09:11:19;;;;;;;4.07;2.80;;;;;;;;;;4463326;28;20030;-66
2022/08/16 09:13:33;;;;;;;3.10;2.80;;;;;;;;;;4470322;28;20034;-66
2022/08/16 09:15:47;;;;;;;3.47;2.60;;;;;;;;;;4438143;28;20532;-66
2022/08/16 09:17:58;;;;;;;2.78;2.58;;;;;;;;;;4446764;28;20035;-66
2022/08/16 09:20:13;;;;;;;3.65;2.53;;;;;;;;;;4445639;28;20039;-66
2022/08/16 09:22:25;;;;;;;2.80;2.50;;;;;;;;;;4454524;28;20116;-66
2022/08/16 09:24:36;;;;;;;2.95;2.65;;;;;;;;;;4446311;28;20039;-66
2022/08/16 09:26:47;;;;;;;2.95;2.42;;;;;;;;;;4468281;28;20105;-66
2022/08/16 09:28:58;;;;;;;4.97;2.75;;;;;;;;;;4453816;28;20090;-66
2022/08/16 09:31:09;;;;;;;3.35;2.75;;;;;;;;;;4446704;28;20826;-66
2022/08/16 09:33:20;;;;;;;3.92;2.80;;;;;;;;;;4471935;28;20042;-66
2022/08/16 09:35:30;;;;;;;3.45;2.78;;;;;;;;;;4447543;28;20669;-66
2022/08/16 09:37:42;;;;;;;3.30;2.70;;;;;;;;;;4457752;28;20039;-66
2022/08/16 09:39:52;;;;;;;2.83;2.53;;;;;;;;;;4457352;28;20511;-66
2022/08/16 09:42:03;;;;;;;3.35;2.53;;;;;;;;;;4456249;28;20058;-66
2022/08/16 09:44:13;;;;;;;2.72;2.42;;;;;;;;;;4456798;28;20039;-66
2022/08/16 09:46:24;;;;;;;3.38;2.60;;;;;;;;;;4449760;28;20496;-66
2022/08/16 09:48:40;;;;;;;3.33;2.83;;;;;;;;;;4458620;28;20110;-66
2022/08/16 09:50:51;;;;;;;3.37;2.80;;;;;;;;;;4458126;28;20060;-66
2022/08/16 09:53:07;;;;;;;3.40;3.03;;;;;;;;;;4471424;28;20282;-66
2022/08/16 09:55:18;;;;;;;3.65;2.80;;;;;;;;;;4458461;28;20147;-66
2022/08/16 09:57:28;;;;;;;4.10;2.92;;;;;;;;;;4458197;28;20720;-66
2022/08/16 09:59:39;;;;;;;3.67;2.78;;;;;;;;;;4457967;28;20535;-66
2022/08/16 10:01:50;;;;;;;3.20;2.85;;;;;;;;;;4457493;28;20063;-66
2022/08/16 10:04:01;;;;;;;3.60;3.00;;;;;;;;;;4456862;28;20131;-66
2022/08/16 10:06:11;;;;;;;2.42;2.08;;;;;;;;;;4457012;28;20498;-66
2022/08/16 10:08:22;;;;;;;2.13;1.77;;;;;;;;;;4457481;28;20081;-66
2022/08/16 10:10:33;;;;;;;2.00;1.80;;;;;;;;;;4457730;28;20032;-66
2022/08/16 10:15:20;;;;;;;1.98;1.77;;;;;;;;;;4456856;28;20066;-66
2022/08/16 10:17:30;;;;;;;2.65;2.05;;;;;;;;;;4441197;28;20043;-66
2022/08/16 10:19:41;;;;;;;1.90;1.65;;;;;;;;;;4440441;28;20051;-66
2022/08/16 10:21:52;;;;;;;2.00;1.80;;;;;;;;;;4440382;28;20047;-66
2022/08/16 10:24:03;;;;;;;1.70;1.60;;;;;;;;;;4472526;28;20056;-66
2022/08/16 10:26:14;;;;;;;1.70;1.60;;;;;;;;;;4457593;28;20510;-66
2022/08/16 10:28:25;;;;;;;2.10;1.90;;;;;;;;;;4450085;28;20614;-66
2022/08/16 10:30:36;;;;;;;1.77;1.60;;;;;;;;;;4456837;28;20226;-66
2022/08/16 10:32:47;;;;;;;2.03;1.73;;;;;;;;;;4455304;28;20847;-66
2022/08/16 10:34:58;;;;;;;2.25;1.80;;;;;;;;;;4440808;28;20055;-66
2022/08/16 10:37:08;;;;;;;2.30;1.88;;;;;;;;;;4440424;28;20610;-66
2022/08/16 10:39:19;;;;;;;1.85;1.70;;;;;;;;;;4457150;28;20042;-66
2022/08/16 10:41:29;;;;;;;1.70;1.60;;;;;;;;;;4455843;28;20063;-67
2022/08/16 10:43:40;;;;;;;1.58;1.48;;;;;;;;;;4456337;28;20423;-68
2022/08/16 10:45:51;;;;;;;1.60;1.50;;;;;;;;;;4456373;28;20027;-67
2022/08/16 10:48:02;;;;;;;1.48;1.38;;;;;;;;;;4456202;28;20039;-67
2022/08/16 10:50:12;;;;;;;1.30;1.20;;;;;;;;;;4440489;28;20791;-67
2022/08/16 10:52:23;;;;;;;1.30;1.20;;;;;;;;;;4458068;28;20043;-66
2022/08/16 10:54:33;;;;;;;1.35;1.25;;;;;;;;;;4472264;28;21096;-66
2022/08/16 10:56:44;;;;;;;1.30;1.20;;;;;;;;;;4439927;28;20048;-66
2022/08/16 10:58:56;;;;;;;1.67;1.58;;;;;;;;;;4456781;28;20036;-66
2022/08/16 11:01:08;;;;;;;1.60;1.50;;;;;;;;;;4456079;28;20589;-66
2022/08/16 11:03:20;;;;;;;1.70;1.60;;;;;;;;;;4449000;28;20050;-66
2022/08/16 11:05:32;;;;;;;1.80;1.70;;;;;;;;;;4454945;28;20030;-66
2022/08/16 11:07:46;;;;;;;1.60;1.50;;;;;;;;;;4439264;28;20052;-66
2022/08/16 11:10:00;;;;;;;1.77;1.67;;;;;;;;;;4470750;28;21049;-66
2022/08/16 11:12:11;;;;;;;1.63;1.50;;;;;;;;;;4456341;28;20038;-66
2022/08/16 11:14:23;;;;;;;1.70;1.60;;;;;;;;;;4456237;28;20042;-66
2022/08/16 11:16:34;;;;;;;1.70;1.60;;;;;;;;;;4448820;28;20557;-66
2022/08/16 11:18:45;;;;;;;1.83;1.73;;;;;;;;;;4439788;28;20048;-66
2022/08/16 11:20:57;;;;;;;1.70;1.60;;;;;;;;;;4455960;28;20661;-66
2022/08/16 11:23:08;;;;;;;1.70;1.60;;;;;;;;;;4456517;28;20046;-66
2022/08/16 11:25:22;;;;;;;1.70;1.60;;;;;;;;;;4455305;28;20214;-66
2022/08/16 11:27:32;;;;;;;1.40;1.30;;;;;;;;;;4471994;28;20042;-66
2022/08/16 11:29:43;;;;;;;1.58;1.48;;;;;;;;;;4456930;28;20043;-66
2022/08/16 11:31:53;;;;;;;1.25;1.15;;;;;;;;;;4453986;28;20042;-66
2022/08/16 11:34:04;;;;;;;1.40;1.30;;;;;;;;;;4439777;28;20050;-66
2022/08/16 11:36:15;;;;;;;1.40;1.30;;;;;;;;;;4448414;28;20086;-66
2022/08/16 11:38:25;;;;;;;1.25;1.15;;;;;;;;;;4471653;28;20121;-66
2022/08/16 11:40:45;;;;;;;1.23;1.13;;;;;;;;;;4455259;28;20035;-67
2022/08/16 11:42:56;;;;;;;1.40;1.30;;;;;;;;;;4455356;28;20035;-66
2022/08/16 11:45:07;;;;;;;1.48;1.38;;;;;;;;;;4455436;28;20030;-66
2022/08/16 11:47:17;;;;;;;1.48;1.38;;;;;;;;;;4471723;28;20131;-66
2022/08/16 11:49:28;;;;;;;1.15;1.05;;;;;;;;;;4454765;28;20125;-67
2022/08/16 11:51:42;;;;;;;1.35;1.25;;;;;;;;;;4454679;28;20043;-66
2022/08/16 11:53:53;;;;;;;1.35;1.25;;;;;;;;;;4470276;28;20027;-66
2022/08/16 11:56:04;;;;;;;1.40;1.30;;;;;;;;;;4455922;28;20031;-66
2022/08/16 11:58:14;;;;;;;1.33;1.20;;;;;;;;;;4455510;28;20035;-67
2022/08/16 12:00:25;;;;;;;1.25;1.15;;;;;;;;;;4455293;28;20047;-66
2022/08/16 12:02:37;;;;;;;1.40;1.30;;;;;;;;;;4456990;28;20035;-66
2022/08/16 12:04:47;;;;;;;1.30;1.20;;;;;;;;;;4441580;28;20034;-66
2022/08/16 12:06:58;;;;;;;1.33;1.23;;;;;;;;;;4438768;28;20538;-66
2022/08/16 12:09:08;;;;;;;1.40;1.30;;;;;;;;;;4455105;28;20499;-66
2022/08/16 12:11:18;;;;;;;1.30;1.20;;;;;;;;;;4455301;28;20039;-67
2022/08/16 12:13:29;;;;;;;1.55;1.30;;;;;;;;;;4455664;28;20037;-66
2022/08/16 12:15:40;;;;;;;1.08;1.00;;;;;;;;;;4454350;28;20146;-66
2022/08/16 12:17:52;;;;;;;1.30;1.20;;;;;;;;;;4447203;28;20119;-66
2022/08/16 12:20:08;;;;;;;1.50;1.40;;;;;;;;;;4455060;28;20566;-66
2022/08/16 12:22:18;;;;;;;1.40;1.30;;;;;;;;;;4455991;28;20023;-66
2022/08/16 12:24:29;;;;;;;1.45;1.20;;;;;;;;;;4454902;28;20036;-67
2022/08/16 12:26:39;;;;;;;1.20;1.10;;;;;;;;;;4470336;28;20050;-66
2022/08/16 12:28:52;;;;;;;1.10;1.00;;;;;;;;;;4456218;28;20052;-65
2022/08/16 12:31:03;;;;;;;1.20;1.10;;;;;;;;;;4456083;28;20039;-67
2022/08/16 12:33:15;;;;;;;1.30;1.20;;;;;;;;;;4455677;28;20031;-66
2022/08/16 12:35:28;;;;;;;1.08;1.00;;;;;;;;;;4455278;28;20031;-66
2022/08/16 12:37:40;;;;;;;1.20;1.10;;;;;;;;;;4443194;28;20032;-65
2022/08/16 12:39:55;;;;;;;1.30;1.20;;;;;;;;;;4455473;28;20035;-65
2022/08/16 12:42:08;;;;;;;1.30;1.20;;;;;;;;;;4456734;28;20027;-65
2022/08/16 12:44:18;;;;;;;1.17;1.08;;;;;;;;;;4455535;28;20321;-65
2022/08/16 12:46:29;;;;;;;1.20;1.10;;;;;;;;;;4455100;28;20036;-65
2022/08/16 12:48:58;;;;;;;1.60;1.30;;;;;;;;;;4448083;28;20530;-65
2022/08/16 12:51:12;;;;;;;1.20;1.10;;;;;;;;;;4454775;28;20066;-65
2022/08/16 12:53:23;;;;;;;1.10;1.00;;;;;;;;;;4470681;28;20153;-65
2022/08/16 12:55:35;;;;;;;1.23;1.13;;;;;;;;;;4454730;28;20050;-65
2022/08/16 12:57:46;;;;;;;1.30;1.20;;;;;;;;;;4453864;28;20035;-64
2022/08/16 12:59:56;;;;;;;1.35;1.10;;;;;;;;;;4455894;28;20058;-64
2022/08/16 13:02:07;;;;;;;1.42;1.17;;;;;;;;;;4468544;28;20047;-64
2022/08/16 13:04:18;;;;;;;1.30;1.20;;;;;;;;;;4456349;28;20031;-64
2022/08/16 13:06:29;;;;;;;1.30;1.20;;;;;;;;;;4454661;28;20488;-64
2022/08/16 13:08:40;;;;;;;1.20;1.10;;;;;;;;;;4457399;28;20023;-66
2022/08/16 13:10:53;;;;;;;1.10;1.00;;;;;;;;;;4456678;28;20041;-65
2022/08/16 13:13:04;;;;;;;1.20;1.10;;;;;;;;;;4441906;28;20043;-65
2022/08/16 13:15:17;;;;;;;1.30;1.20;;;;;;;;;;4458829;28;20669;-65
2022/08/16 13:17:27;;;;;;;1.50;1.30;;;;;;;;;;4472237;28;20063;-66